sensor_id;sensor_type;location;lat;lon;timestamp;P1;durP1;ratioP1;P2;durP2;ratioP2
59512;SDS011;45330;51.634;5.562;2022-09-27T00:01:04;12.52;;;2.83;;
59512;SDS011;45330;51.634;5.562;2022-09-27T00:03:32;13.93;;;2.67;;
59512;SDS011;45330;51.634;5.562;2022-09-27T00:06:01;15.05;;;2.75;;
59512;SDS011;45330;51.634;5.562;2022-09-27T00:08:32;12.65;;;2.78;;
59512;SDS011;45330;51.634;5.562;2022-09-27T00:10:59;11.70;;;2.63;;
59512;SDS011;45330;51.634;5.562;2022-09-27T00:13:26;13.60;;;3.00;;
59512;SDS011;45330;51.634;5.562;2022-09-27T00:15:58;15.52;;;2.70;;
59512;SDS011;45330;51.634;5.562;2022-09-27T00:18:24;14.25;;;2.70;;
59512;SDS011;45330;51.634;5.562;2022-09-27T00:20:50;15.48;;;2.60;;
59512;SDS011;45330;51.634;5.562;2022-09-27T00:23:18;11.35;;;2.47;;
59512;SDS011;45330;51.634;5.562;2022-09-27T00:25:53;16.17;;;2.70;;
59512;SDS011;45330;51.634;5.562;2022-09-27T00:28:22;14.20;;;2.80;;
59512;SDS011;45330;51.634;5.562;2022-09-27T00:30:48;15.82;;;2.90;;
59512;SDS011;45330;51.634;5.562;2022-09-27T00:33:13;13.20;;;2.97;;
59512;SDS011;45330;51.634;5.562;2022-09-27T00:35:39;10.70;;;2.80;;
59512;SDS011;45330;51.634;5.562;2022-09-27T00:38:04;16.23;;;3.05;;
59512;SDS011;45330;51.634;5.562;2022-09-27T00:40:30;13.82;;;2.70;;
59512;SDS011;45330;51.634;5.562;2022-09-27T00:42:55;14.90;;;3.00;;
59512;SDS011;45330;51.634;5.562;2022-09-27T00:45:21;12.00;;;2.70;;
59512;SDS011;45330;51.634;5.562;2022-09-27T00:47:57;13.05;;;3.38;;
59512;SDS011;45330;51.634;5.562;2022-09-27T00:50:34;14.77;;;2.80;;
59512;SDS011;45330;51.634;5.562;2022-09-27T00:53:06;16.30;;;3.00;;
59512;SDS011;45330;51.634;5.562;2022-09-27T00:55:37;13.80;;;2.65;;
59512;SDS011;45330;51.634;5.562;2022-09-27T00:58:07;11.07;;;2.38;;
59512;SDS011;45330;51.634;5.562;2022-09-27T01:00:34;12.10;;;2.75;;
59512;SDS011;45330;51.634;5.562;2022-09-27T01:03:03;14.32;;;2.75;;
59512;SDS011;45330;51.634;5.562;2022-09-27T01:05:31;12.20;;;2.20;;
59512;SDS011;45330;51.634;5.562;2022-09-27T01:07:56;14.70;;;1.83;;
59512;SDS011;45330;51.634;5.562;2022-09-27T01:10:24;9.48;;;1.80;;
59512;SDS011;45330;51.634;5.562;2022-09-27T01:12:57;10.63;;;1.67;;
59512;SDS011;45330;51.634;5.562;2022-09-27T01:23:42;13.40;;;1.90;;
59512;SDS011;45330;51.634;5.562;2022-09-27T01:35:21;11.25;;;1.92;;
59512;SDS011;45330;51.634;5.562;2022-09-27T01:38:20;10.75;;;1.85;;
59512;SDS011;45330;51.634;5.562;2022-09-27T01:43:29;8.23;;;1.92;;
59512;SDS011;45330;51.634;5.562;2022-09-27T01:46:13;9.95;;;2.28;;
59512;SDS011;45330;51.634;5.562;2022-09-27T01:48:44;9.20;;;1.63;;
59512;SDS011;45330;51.634;5.562;2022-09-27T01:51:17;9.32;;;1.70;;
59512;SDS011;45330;51.634;5.562;2022-09-27T01:53:46;11.15;;;1.65;;
59512;SDS011;45330;51.634;5.562;2022-09-27T01:56:17;11.80;;;2.50;;
59512;SDS011;45330;51.634;5.562;2022-09-27T02:01:29;14.32;;;2.05;;
59512;SDS011;45330;51.634;5.562;2022-09-27T02:03:58;10.80;;;1.77;;
59512;SDS011;45330;51.634;5.562;2022-09-27T02:06:35;10.55;;;1.95;;
59512;SDS011;45330;51.634;5.562;2022-09-27T02:09:05;6.93;;;1.98;;
59512;SDS011;45330;51.634;5.562;2022-09-27T02:11:35;10.70;;;1.75;;
59512;SDS011;45330;51.634;5.562;2022-09-27T02:14:07;10.57;;;1.80;;
59512;SDS011;45330;51.634;5.562;2022-09-27T02:16:42;10.95;;;1.95;;
59512;SDS011;45330;51.634;5.562;2022-09-27T02:19:14;11.70;;;2.05;;
59512;SDS011;45330;51.634;5.562;2022-09-27T02:24:28;7.00;;;1.73;;
59512;SDS011;45330;51.634;5.562;2022-09-27T02:27:03;11.63;;;1.80;;
59512;SDS011;45330;51.634;5.562;2022-09-27T02:29:38;11.40;;;1.73;;
59512;SDS011;45330;51.634;5.562;2022-09-27T02:32:07;15.70;;;2.63;;
59512;SDS011;45330;51.634;5.562;2022-09-27T02:34:32;11.32;;;2.00;;
59512;SDS011;45330;51.634;5.562;2022-09-27T02:37:01;10.93;;;1.80;;
59512;SDS011;45330;51.634;5.562;2022-09-27T02:39:26;12.43;;;1.98;;
59512;SDS011;45330;51.634;5.562;2022-09-27T02:41:52;11.10;;;1.80;;
59512;SDS011;45330;51.634;5.562;2022-09-27T02:44:22;9.55;;;1.60;;
59512;SDS011;45330;51.634;5.562;2022-09-27T02:49:48;6.35;;;1.75;;
59512;SDS011;45330;51.634;5.562;2022-09-27T02:52:44;11.18;;;1.70;;
59512;SDS011;45330;51.634;5.562;2022-09-27T03:00:51;15.93;;;2.35;;
59512;SDS011;45330;51.634;5.562;2022-09-27T03:03:27;7.53;;;1.88;;
59512;SDS011;45330;51.634;5.562;2022-09-27T03:06:04;13.65;;;1.80;;
59512;SDS011;45330;51.634;5.562;2022-09-27T03:08:32;10.02;;;2.05;;
59512;SDS011;45330;51.634;5.562;2022-09-27T03:10:58;11.38;;;1.92;;
59512;SDS011;45330;51.634;5.562;2022-09-27T03:13:23;13.50;;;2.22;;
59512;SDS011;45330;51.634;5.562;2022-09-27T03:15:49;10.25;;;2.05;;
59512;SDS011;45330;51.634;5.562;2022-09-27T03:18:14;7.30;;;2.03;;
59512;SDS011;45330;51.634;5.562;2022-09-27T03:20:40;15.88;;;2.75;;
59512;SDS011;45330;51.634;5.562;2022-09-27T03:23:05;10.48;;;1.95;;
59512;SDS011;45330;51.634;5.562;2022-09-27T03:25:30;11.27;;;2.05;;
59512;SDS011;45330;51.634;5.562;2022-09-27T03:27:56;12.90;;;2.17;;
59512;SDS011;45330;51.634;5.562;2022-09-27T03:30:21;13.27;;;2.20;;
59512;SDS011;45330;51.634;5.562;2022-09-27T03:32:46;10.52;;;2.20;;
59512;SDS011;45330;51.634;5.562;2022-09-27T03:35:12;12.95;;;2.20;;
59512;SDS011;45330;51.634;5.562;2022-09-27T03:37:38;13.52;;;2.40;;
59512;SDS011;45330;51.634;5.562;2022-09-27T03:40:05;11.82;;;2.00;;
59512;SDS011;45330;51.634;5.562;2022-09-27T03:42:32;11.77;;;3.08;;
59512;SDS011;45330;51.634;5.562;2022-09-27T03:44:57;8.43;;;2.13;;
59512;SDS011;45330;51.634;5.562;2022-09-27T03:47:23;15.20;;;2.90;;
59512;SDS011;45330;51.634;5.562;2022-09-27T03:49:48;14.93;;;2.28;;
59512;SDS011;45330;51.634;5.562;2022-09-27T03:52:14;10.88;;;2.05;;
59512;SDS011;45330;51.634;5.562;2022-09-27T03:54:40;15.48;;;2.50;;
59512;SDS011;45330;51.634;5.562;2022-09-27T03:57:06;9.18;;;1.98;;
59512;SDS011;45330;51.634;5.562;2022-09-27T03:59:32;15.13;;;2.20;;
59512;SDS011;45330;51.634;5.562;2022-09-27T04:01:58;14.43;;;2.30;;
59512;SDS011;45330;51.634;5.562;2022-09-27T04:04:23;12.85;;;2.30;;
59512;SDS011;45330;51.634;5.562;2022-09-27T04:06:48;11.93;;;2.10;;
59512;SDS011;45330;51.634;5.562;2022-09-27T04:09:14;8.68;;;2.00;;
59512;SDS011;45330;51.634;5.562;2022-09-27T04:11:39;9.55;;;2.22;;
59512;SDS011;45330;51.634;5.562;2022-09-27T04:14:05;8.13;;;1.90;;
59512;SDS011;45330;51.634;5.562;2022-09-27T04:16:30;3.85;;;1.20;;
59512;SDS011;45330;51.634;5.562;2022-09-27T04:18:56;10.68;;;2.08;;
59512;SDS011;45330;51.634;5.562;2022-09-27T04:21:22;7.00;;;1.40;;
59512;SDS011;45330;51.634;5.562;2022-09-27T04:23:48;5.03;;;1.40;;
59512;SDS011;45330;51.634;5.562;2022-09-27T04:26:13;5.88;;;1.48;;
59512;SDS011;45330;51.634;5.562;2022-09-27T04:28:38;8.25;;;1.70;;
59512;SDS011;45330;51.634;5.562;2022-09-27T04:31:04;7.38;;;1.30;;
59512;SDS011;45330;51.634;5.562;2022-09-27T04:33:30;5.95;;;1.23;;
59512;SDS011;45330;51.634;5.562;2022-09-27T04:35:55;4.03;;;1.13;;
59512;SDS011;45330;51.634;5.562;2022-09-27T04:38:39;4.63;;;1.15;;
59512;SDS011;45330;51.634;5.562;2022-09-27T04:41:04;2.90;;;1.15;;
59512;SDS011;45330;51.634;5.562;2022-09-27T04:43:31;7.78;;;1.40;;
59512;SDS011;45330;51.634;5.562;2022-09-27T04:45:56;8.40;;;1.60;;
59512;SDS011;45330;51.634;5.562;2022-09-27T04:48:22;5.50;;;1.60;;
59512;SDS011;45330;51.634;5.562;2022-09-27T04:50:54;3.70;;;1.58;;
59512;SDS011;45330;51.634;5.562;2022-09-27T04:53:20;4.95;;;1.67;;
59512;SDS011;45330;51.634;5.562;2022-09-27T04:55:46;8.63;;;1.92;;
59512;SDS011;45330;51.634;5.562;2022-09-27T04:58:11;8.93;;;2.10;;
59512;SDS011;45330;51.634;5.562;2022-09-27T05:00:36;8.43;;;2.08;;
59512;SDS011;45330;51.634;5.562;2022-09-27T05:03:02;12.63;;;2.55;;
59512;SDS011;45330;51.634;5.562;2022-09-27T05:05:27;10.52;;;2.30;;
59512;SDS011;45330;51.634;5.562;2022-09-27T05:07:53;5.20;;;1.63;;
59512;SDS011;45330;51.634;5.562;2022-09-27T05:10:18;4.70;;;1.70;;
59512;SDS011;45330;51.634;5.562;2022-09-27T05:12:44;8.88;;;1.90;;
59512;SDS011;45330;51.634;5.562;2022-09-27T05:15:09;5.90;;;1.70;;
59512;SDS011;45330;51.634;5.562;2022-09-27T05:17:35;8.88;;;2.00;;
59512;SDS011;45330;51.634;5.562;2022-09-27T05:20:01;7.63;;;1.92;;
59512;SDS011;45330;51.634;5.562;2022-09-27T05:22:27;9.57;;;2.30;;
59512;SDS011;45330;51.634;5.562;2022-09-27T05:24:53;8.68;;;1.83;;
59512;SDS011;45330;51.634;5.562;2022-09-27T05:27:18;6.45;;;1.90;;
59512;SDS011;45330;51.634;5.562;2022-09-27T05:29:44;3.83;;;1.65;;
59512;SDS011;45330;51.634;5.562;2022-09-27T05:32:10;12.50;;;1.60;;
59512;SDS011;45330;51.634;5.562;2022-09-27T05:34:36;8.02;;;1.70;;
59512;SDS011;45330;51.634;5.562;2022-09-27T05:37:02;3.92;;;1.20;;
59512;SDS011;45330;51.634;5.562;2022-09-27T05:39:27;9.63;;;2.10;;
59512;SDS011;45330;51.634;5.562;2022-09-27T05:41:53;12.23;;;2.38;;
59512;SDS011;45330;51.634;5.562;2022-09-27T05:44:20;7.40;;;1.40;;
59512;SDS011;45330;51.634;5.562;2022-09-27T05:46:45;9.00;;;1.80;;
59512;SDS011;45330;51.634;5.562;2022-09-27T05:49:11;8.98;;;1.60;;
59512;SDS011;45330;51.634;5.562;2022-09-27T05:51:36;6.03;;;1.65;;
59512;SDS011;45330;51.634;5.562;2022-09-27T05:54:01;9.90;;;1.80;;
59512;SDS011;45330;51.634;5.562;2022-09-27T05:56:27;7.43;;;1.92;;
59512;SDS011;45330;51.634;5.562;2022-09-27T05:58:53;8.57;;;1.90;;
59512;SDS011;45330;51.634;5.562;2022-09-27T06:01:18;7.97;;;1.70;;
59512;SDS011;45330;51.634;5.562;2022-09-27T06:03:44;5.57;;;1.52;;
59512;SDS011;45330;51.634;5.562;2022-09-27T06:06:10;5.32;;;1.70;;
59512;SDS011;45330;51.634;5.562;2022-09-27T06:08:36;5.18;;;1.73;;
59512;SDS011;45330;51.634;5.562;2022-09-27T06:11:03;5.78;;;1.63;;
59512;SDS011;45330;51.634;5.562;2022-09-27T06:13:30;6.47;;;1.42;;
59512;SDS011;45330;51.634;5.562;2022-09-27T06:16:00;6.40;;;1.40;;
59512;SDS011;45330;51.634;5.562;2022-09-27T06:18:26;8.57;;;2.20;;
59512;SDS011;45330;51.634;5.562;2022-09-27T06:20:51;6.65;;;1.90;;
59512;SDS011;45330;51.634;5.562;2022-09-27T06:23:18;6.35;;;1.73;;
59512;SDS011;45330;51.634;5.562;2022-09-27T06:25:45;7.63;;;1.70;;
59512;SDS011;45330;51.634;5.562;2022-09-27T06:28:13;4.32;;;1.50;;
59512;SDS011;45330;51.634;5.562;2022-09-27T06:30:40;4.68;;;1.67;;
59512;SDS011;45330;51.634;5.562;2022-09-27T06:33:08;7.72;;;1.58;;
59512;SDS011;45330;51.634;5.562;2022-09-27T06:35:36;6.40;;;1.48;;
59512;SDS011;45330;51.634;5.562;2022-09-27T06:38:02;4.20;;;1.52;;
59512;SDS011;45330;51.634;5.562;2022-09-27T06:40:29;5.00;;;1.38;;
59512;SDS011;45330;51.634;5.562;2022-09-27T06:43:05;3.17;;;1.50;;
59512;SDS011;45330;51.634;5.562;2022-09-27T06:45:33;5.85;;;1.45;;
59512;SDS011;45330;51.634;5.562;2022-09-27T06:47:59;6.25;;;1.90;;
59512;SDS011;45330;51.634;5.562;2022-09-27T06:50:26;3.60;;;1.70;;
59512;SDS011;45330;51.634;5.562;2022-09-27T06:52:57;7.78;;;1.80;;
59512;SDS011;45330;51.634;5.562;2022-09-27T06:55:23;5.60;;;2.00;;
59512;SDS011;45330;51.634;5.562;2022-09-27T06:57:52;6.70;;;2.38;;
59512;SDS011;45330;51.634;5.562;2022-09-27T07:00:40;6.55;;;1.83;;
59512;SDS011;45330;51.634;5.562;2022-09-27T07:03:07;6.65;;;2.22;;
59512;SDS011;45330;51.634;5.562;2022-09-27T07:05:35;9.00;;;2.55;;
59512;SDS011;45330;51.634;5.562;2022-09-27T07:08:02;5.03;;;2.17;;
59512;SDS011;45330;51.634;5.562;2022-09-27T07:10:28;5.70;;;2.33;;
59512;SDS011;45330;51.634;5.562;2022-09-27T07:13:01;6.78;;;2.50;;
59512;SDS011;45330;51.634;5.562;2022-09-27T07:15:32;9.23;;;2.40;;
59512;SDS011;45330;51.634;5.562;2022-09-27T07:18:01;5.57;;;2.70;;
59512;SDS011;45330;51.634;5.562;2022-09-27T07:20:27;6.60;;;2.85;;
59512;SDS011;45330;51.634;5.562;2022-09-27T07:22:55;9.02;;;2.90;;
59512;SDS011;45330;51.634;5.562;2022-09-27T07:25:22;9.93;;;3.13;;
59512;SDS011;45330;51.634;5.562;2022-09-27T07:27:48;9.15;;;3.53;;
59512;SDS011;45330;51.634;5.562;2022-09-27T07:30:13;12.25;;;3.55;;
59512;SDS011;45330;51.634;5.562;2022-09-27T07:32:41;9.02;;;3.45;;
59512;SDS011;45330;51.634;5.562;2022-09-27T07:35:07;10.55;;;3.75;;
59512;SDS011;45330;51.634;5.562;2022-09-27T07:37:34;9.52;;;3.60;;
59512;SDS011;45330;51.634;5.562;2022-09-27T07:40:01;11.52;;;3.53;;
59512;SDS011;45330;51.634;5.562;2022-09-27T07:42:31;13.13;;;4.13;;
59512;SDS011;45330;51.634;5.562;2022-09-27T07:44:57;8.63;;;3.70;;
59512;SDS011;45330;51.634;5.562;2022-09-27T07:47:23;6.88;;;3.67;;
59512;SDS011;45330;51.634;5.562;2022-09-27T07:49:50;12.32;;;4.10;;
59512;SDS011;45330;51.634;5.562;2022-09-27T07:52:16;10.20;;;4.35;;
59512;SDS011;45330;51.634;5.562;2022-09-27T07:54:45;10.48;;;4.40;;
59512;SDS011;45330;51.634;5.562;2022-09-27T07:57:11;12.27;;;4.45;;
59512;SDS011;45330;51.634;5.562;2022-09-27T07:59:37;14.52;;;5.38;;
59512;SDS011;45330;51.634;5.562;2022-09-27T08:02:02;14.73;;;5.13;;
59512;SDS011;45330;51.634;5.562;2022-09-27T08:04:28;13.43;;;5.65;;
59512;SDS011;45330;51.634;5.562;2022-09-27T08:06:53;13.75;;;5.88;;
59512;SDS011;45330;51.634;5.562;2022-09-27T08:09:19;15.35;;;6.03;;
59512;SDS011;45330;51.634;5.562;2022-09-27T08:11:44;14.70;;;6.10;;
59512;SDS011;45330;51.634;5.562;2022-09-27T08:14:10;16.85;;;6.45;;
59512;SDS011;45330;51.634;5.562;2022-09-27T08:16:36;13.82;;;6.20;;
59512;SDS011;45330;51.634;5.562;2022-09-27T08:19:01;16.15;;;6.72;;
59512;SDS011;45330;51.634;5.562;2022-09-27T08:21:27;15.10;;;6.50;;
59512;SDS011;45330;51.634;5.562;2022-09-27T08:23:53;15.48;;;5.95;;
59512;SDS011;45330;51.634;5.562;2022-09-27T08:26:18;14.18;;;5.82;;
59512;SDS011;45330;51.634;5.562;2022-09-27T08:28:45;16.05;;;5.80;;
59512;SDS011;45330;51.634;5.562;2022-09-27T08:31:12;14.85;;;6.03;;
59512;SDS011;45330;51.634;5.562;2022-09-27T08:33:37;15.77;;;6.28;;
59512;SDS011;45330;51.634;5.562;2022-09-27T08:36:03;16.67;;;6.28;;
59512;SDS011;45330;51.634;5.562;2022-09-27T08:38:29;17.23;;;6.43;;
59512;SDS011;45330;51.634;5.562;2022-09-27T08:40:55;16.33;;;6.55;;
59512;SDS011;45330;51.634;5.562;2022-09-27T08:43:38;16.55;;;6.40;;
59512;SDS011;45330;51.634;5.562;2022-09-27T08:46:13;14.32;;;6.30;;
59512;SDS011;45330;51.634;5.562;2022-09-27T08:48:39;15.05;;;6.40;;
59512;SDS011;45330;51.634;5.562;2022-09-27T08:51:08;14.38;;;6.18;;
59512;SDS011;45330;51.634;5.562;2022-09-27T08:56:03;16.70;;;7.35;;
59512;SDS011;45330;51.634;5.562;2022-09-27T08:58:33;17.63;;;7.65;;
59512;SDS011;45330;51.634;5.562;2022-09-27T09:01:14;19.35;;;7.72;;
59512;SDS011;45330;51.634;5.562;2022-09-27T09:03:48;18.92;;;7.97;;
59512;SDS011;45330;51.634;5.562;2022-09-27T09:06:24;20.40;;;8.10;;
59512;SDS011;45330;51.634;5.562;2022-09-27T09:21:15;19.85;;;9.05;;
59512;SDS011;45330;51.634;5.562;2022-09-27T09:23:49;21.23;;;9.35;;
59512;SDS011;45330;51.634;5.562;2022-09-27T09:29:03;19.63;;;9.35;;
59512;SDS011;45330;51.634;5.562;2022-09-27T09:34:27;20.05;;;9.65;;
59512;SDS011;45330;51.634;5.562;2022-09-27T09:36:59;21.67;;;10.18;;
59512;SDS011;45330;51.634;5.562;2022-09-27T09:39:35;22.02;;;9.95;;
59512;SDS011;45330;51.634;5.562;2022-09-27T09:42:27;19.98;;;9.40;;
59512;SDS011;45330;51.634;5.562;2022-09-27T09:44:58;21.27;;;10.00;;
59512;SDS011;45330;51.634;5.562;2022-09-27T09:47:34;22.05;;;9.93;;
59512;SDS011;45330;51.634;5.562;2022-09-27T09:50:13;20.08;;;9.30;;
59512;SDS011;45330;51.634;5.562;2022-09-27T09:52:50;21.20;;;9.27;;
59512;SDS011;45330;51.634;5.562;2022-09-27T09:55:45;19.90;;;8.50;;
59512;SDS011;45330;51.634;5.562;2022-09-27T10:00:43;18.65;;;8.00;;
59512;SDS011;45330;51.634;5.562;2022-09-27T10:03:09;11.77;;;4.90;;
59512;SDS011;45330;51.634;5.562;2022-09-27T10:05:35;11.98;;;4.03;;
59512;SDS011;45330;51.634;5.562;2022-09-27T10:08:01;9.10;;;3.10;;
59512;SDS011;45330;51.634;5.562;2022-09-27T10:10:29;6.45;;;2.47;;
59512;SDS011;45330;51.634;5.562;2022-09-27T10:12:55;4.68;;;1.77;;
59512;SDS011;45330;51.634;5.562;2022-09-27T10:15:22;5.78;;;2.00;;
59512;SDS011;45330;51.634;5.562;2022-09-27T10:17:57;5.15;;;1.85;;
59512;SDS011;45330;51.634;5.562;2022-09-27T10:23:20;6.32;;;2.45;;
59512;SDS011;45330;51.634;5.562;2022-09-27T10:25:52;4.90;;;2.58;;
59512;SDS011;45330;51.634;5.562;2022-09-27T10:28:26;6.18;;;2.83;;
59512;SDS011;45330;51.634;5.562;2022-09-27T10:30:56;7.72;;;2.78;;
59512;SDS011;45330;51.634;5.562;2022-09-27T10:33:24;9.45;;;3.45;;
59512;SDS011;45330;51.634;5.562;2022-09-27T10:35:51;9.73;;;3.40;;
59512;SDS011;45330;51.634;5.562;2022-09-27T10:40:43;8.27;;;2.45;;
59512;SDS011;45330;51.634;5.562;2022-09-27T10:48:41;5.97;;;2.78;;
59512;SDS011;45330;51.634;5.562;2022-09-27T10:51:18;5.07;;;1.98;;
59512;SDS011;45330;51.634;5.562;2022-09-27T10:53:49;4.30;;;1.50;;
59512;SDS011;45330;51.634;5.562;2022-09-27T10:56:22;5.18;;;1.70;;
59512;SDS011;45330;51.634;5.562;2022-09-27T10:58:51;6.20;;;1.40;;
59512;SDS011;45330;51.634;5.562;2022-09-27T11:01:19;3.10;;;1.40;;
59512;SDS011;45330;51.634;5.562;2022-09-27T11:03:48;5.45;;;1.67;;
59512;SDS011;45330;51.634;5.562;2022-09-27T11:08:51;5.72;;;1.60;;
59512;SDS011;45330;51.634;5.562;2022-09-27T11:19:39;2.97;;;1.63;;
59512;SDS011;45330;51.634;5.562;2022-09-27T11:28:02;2.70;;;1.50;;
59512;SDS011;45330;51.634;5.562;2022-09-27T11:33:23;2.60;;;1.20;;
59512;SDS011;45330;51.634;5.562;2022-09-27T11:36:00;4.28;;;1.33;;
59512;SDS011;45330;51.634;5.562;2022-09-27T11:46:34;2.22;;;1.33;;
59512;SDS011;45330;51.634;5.562;2022-09-27T12:07:42;5.50;;;1.25;;
59512;SDS011;45330;51.634;5.562;2022-09-27T12:10:16;2.58;;;0.90;;
59512;SDS011;45330;51.634;5.562;2022-09-27T12:12:44;2.08;;;0.70;;
59512;SDS011;45330;51.634;5.562;2022-09-27T12:15:37;2.45;;;1.10;;
59512;SDS011;45330;51.634;5.562;2022-09-27T12:18:16;0.95;;;0.80;;
59512;SDS011;45330;51.634;5.562;2022-09-27T12:20:50;3.25;;;1.02;;
59512;SDS011;45330;51.634;5.562;2022-09-27T12:26:09;2.63;;;0.85;;
59512;SDS011;45330;51.634;5.562;2022-09-27T12:34:16;2.85;;;0.93;;
59512;SDS011;45330;51.634;5.562;2022-09-27T12:36:55;1.85;;;0.90;;
59512;SDS011;45330;51.634;5.562;2022-09-27T12:42:01;3.55;;;0.98;;
59512;SDS011;45330;51.634;5.562;2022-09-27T12:44:35;4.80;;;1.30;;
59512;SDS011;45330;51.634;5.562;2022-09-27T12:49:44;2.80;;;1.23;;
59512;SDS011;45330;51.634;5.562;2022-09-27T12:52:13;1.20;;;0.80;;
59512;SDS011;45330;51.634;5.562;2022-09-27T13:00:45;1.35;;;0.90;;
59512;SDS011;45330;51.634;5.562;2022-09-27T13:11:50;4.05;;;0.88;;
59512;SDS011;45330;51.634;5.562;2022-09-27T13:14:23;0.68;;;0.68;;
59512;SDS011;45330;51.634;5.562;2022-09-27T13:16:51;2.05;;;1.10;;
59512;SDS011;45330;51.634;5.562;2022-09-27T13:24:51;2.63;;;0.75;;
59512;SDS011;45330;51.634;5.562;2022-09-27T13:32:41;3.38;;;1.10;;
59512;SDS011;45330;51.634;5.562;2022-09-27T13:35:34;2.00;;;0.95;;
59512;SDS011;45330;51.634;5.562;2022-09-27T13:38:00;5.85;;;1.20;;
59512;SDS011;45330;51.634;5.562;2022-09-27T13:45:40;4.10;;;1.40;;
59512;SDS011;45330;51.634;5.562;2022-09-27T13:48:17;1.33;;;1.10;;
59512;SDS011;45330;51.634;5.562;2022-09-27T13:50:51;4.50;;;1.10;;
59512;SDS011;45330;51.634;5.562;2022-09-27T13:53:33;4.88;;;1.20;;
59512;SDS011;45330;51.634;5.562;2022-09-27T14:01:10;5.00;;;2.05;;
59512;SDS011;45330;51.634;5.562;2022-09-27T14:03:43;5.70;;;1.90;;
59512;SDS011;45330;51.634;5.562;2022-09-27T14:06:12;4.15;;;1.75;;
59512;SDS011;45330;51.634;5.562;2022-09-27T14:08:43;7.45;;;1.95;;
59512;SDS011;45330;51.634;5.562;2022-09-27T14:11:13;7.63;;;1.80;;
59512;SDS011;45330;51.634;5.562;2022-09-27T14:13:42;7.43;;;1.83;;
59512;SDS011;45330;51.634;5.562;2022-09-27T14:16:13;4.28;;;1.77;;
59512;SDS011;45330;51.634;5.562;2022-09-27T14:18:45;8.67;;;1.80;;
59512;SDS011;45330;51.634;5.562;2022-09-27T14:23:40;8.10;;;2.10;;
59512;SDS011;45330;51.634;5.562;2022-09-27T14:26:17;6.07;;;2.30;;
59512;SDS011;45330;51.634;5.562;2022-09-27T14:28:51;9.20;;;2.40;;
59512;SDS011;45330;51.634;5.562;2022-09-27T14:31:18;7.93;;;2.35;;
59512;SDS011;45330;51.634;5.562;2022-09-27T14:33:47;7.45;;;2.70;;
59512;SDS011;45330;51.634;5.562;2022-09-27T14:36:19;9.43;;;2.78;;
59512;SDS011;45330;51.634;5.562;2022-09-27T14:39:22;7.75;;;3.00;;
59512;SDS011;45330;51.634;5.562;2022-09-27T14:41:55;9.35;;;3.47;;
59512;SDS011;45330;51.634;5.562;2022-09-27T14:44:20;7.90;;;2.40;;
59512;SDS011;45330;51.634;5.562;2022-09-27T14:46:46;3.75;;;1.90;;
59512;SDS011;45330;51.634;5.562;2022-09-27T14:49:22;5.82;;;1.77;;
59512;SDS011;45330;51.634;5.562;2022-09-27T14:51:55;5.68;;;1.50;;
59512;SDS011;45330;51.634;5.562;2022-09-27T14:54:25;4.07;;;1.80;;
59512;SDS011;45330;51.634;5.562;2022-09-27T14:56:54;6.28;;;1.92;;
59512;SDS011;45330;51.634;5.562;2022-09-27T15:01:51;8.23;;;2.40;;
59512;SDS011;45330;51.634;5.562;2022-09-27T15:04:17;8.02;;;2.10;;
59512;SDS011;45330;51.634;5.562;2022-09-27T15:06:44;7.28;;;2.35;;
59512;SDS011;45330;51.634;5.562;2022-09-27T15:09:14;7.35;;;2.45;;
59512;SDS011;45330;51.634;5.562;2022-09-27T15:11:40;9.10;;;3.15;;
59512;SDS011;45330;51.634;5.562;2022-09-27T15:14:12;7.10;;;2.50;;
59512;SDS011;45330;51.634;5.562;2022-09-27T15:16:41;8.93;;;2.45;;
59512;SDS011;45330;51.634;5.562;2022-09-27T15:19:16;9.07;;;2.72;;
59512;SDS011;45330;51.634;5.562;2022-09-27T15:21:50;10.57;;;2.83;;
59512;SDS011;45330;51.634;5.562;2022-09-27T15:26:59;10.43;;;2.90;;
59512;SDS011;45330;51.634;5.562;2022-09-27T15:29:25;7.82;;;2.45;;
59512;SDS011;45330;51.634;5.562;2022-09-27T15:32:03;5.72;;;1.90;;
59512;SDS011;45330;51.634;5.562;2022-09-27T15:34:31;8.05;;;2.35;;
59512;SDS011;45330;51.634;5.562;2022-09-27T15:37:02;7.05;;;2.22;;
59512;SDS011;45330;51.634;5.562;2022-09-27T15:39:37;4.78;;;1.70;;
59512;SDS011;45330;51.634;5.562;2022-09-27T15:49:56;5.07;;;1.40;;
59512;SDS011;45330;51.634;5.562;2022-09-27T15:55:15;9.57;;;2.45;;
59512;SDS011;45330;51.634;5.562;2022-09-27T15:57:43;4.35;;;1.77;;
59512;SDS011;45330;51.634;5.562;2022-09-27T16:00:12;7.57;;;2.17;;
59512;SDS011;45330;51.634;5.562;2022-09-27T16:02:42;7.18;;;2.03;;
59512;SDS011;45330;51.634;5.562;2022-09-27T16:05:08;7.63;;;2.17;;
59512;SDS011;45330;51.634;5.562;2022-09-27T16:07:33;5.20;;;1.90;;
59512;SDS011;45330;51.634;5.562;2022-09-27T16:09:59;7.60;;;1.75;;
59512;SDS011;45330;51.634;5.562;2022-09-27T16:12:25;7.03;;;1.58;;
59512;SDS011;45330;51.634;5.562;2022-09-27T16:14:54;4.20;;;1.50;;
59512;SDS011;45330;51.634;5.562;2022-09-27T16:17:19;7.43;;;1.70;;
59512;SDS011;45330;51.634;5.562;2022-09-27T16:19:46;7.45;;;1.90;;
59512;SDS011;45330;51.634;5.562;2022-09-27T16:22:11;7.38;;;2.00;;
59512;SDS011;45330;51.634;5.562;2022-09-27T16:24:37;8.13;;;1.70;;
59512;SDS011;45330;51.634;5.562;2022-09-27T16:27:03;10.05;;;2.33;;
59512;SDS011;45330;51.634;5.562;2022-09-27T16:29:28;7.07;;;2.15;;
59512;SDS011;45330;51.634;5.562;2022-09-27T16:31:54;5.85;;;2.03;;
59512;SDS011;45330;51.634;5.562;2022-09-27T16:34:19;6.22;;;2.05;;
59512;SDS011;45330;51.634;5.562;2022-09-27T16:36:45;8.13;;;2.10;;
59512;SDS011;45330;51.634;5.562;2022-09-27T16:39:11;9.38;;;2.13;;
59512;SDS011;45330;51.634;5.562;2022-09-27T16:41:37;5.53;;;1.83;;
59512;SDS011;45330;51.634;5.562;2022-09-27T16:44:11;7.85;;;1.90;;
59512;SDS011;45330;51.634;5.562;2022-09-27T16:46:41;5.90;;;1.90;;
59512;SDS011;45330;51.634;5.562;2022-09-27T16:49:10;5.65;;;2.03;;
59512;SDS011;45330;51.634;5.562;2022-09-27T16:51:55;4.55;;;1.52;;
59512;SDS011;45330;51.634;5.562;2022-09-27T16:54:24;5.82;;;1.60;;
59512;SDS011;45330;51.634;5.562;2022-09-27T16:56:52;3.03;;;1.33;;
59512;SDS011;45330;51.634;5.562;2022-09-27T16:59:17;6.10;;;1.63;;
59512;SDS011;45330;51.634;5.562;2022-09-27T17:01:43;4.43;;;1.65;;
59512;SDS011;45330;51.634;5.562;2022-09-27T17:04:09;6.05;;;1.90;;
59512;SDS011;45330;51.634;5.562;2022-09-27T17:06:34;8.55;;;1.88;;
59512;SDS011;45330;51.634;5.562;2022-09-27T17:09:02;7.25;;;2.00;;
59512;SDS011;45330;51.634;5.562;2022-09-27T17:11:28;7.57;;;2.20;;
59512;SDS011;45330;51.634;5.562;2022-09-27T17:13:54;11.27;;;2.63;;
59512;SDS011;45330;51.634;5.562;2022-09-27T17:16:20;6.88;;;2.55;;
59512;SDS011;45330;51.634;5.562;2022-09-27T17:18:46;10.07;;;3.03;;
59512;SDS011;45330;51.634;5.562;2022-09-27T17:21:11;8.15;;;3.05;;
59512;SDS011;45330;51.634;5.562;2022-09-27T17:23:37;8.00;;;3.30;;
59512;SDS011;45330;51.634;5.562;2022-09-27T17:26:06;8.90;;;3.72;;
59512;SDS011;45330;51.634;5.562;2022-09-27T17:28:36;11.98;;;3.63;;
59512;SDS011;45330;51.634;5.562;2022-09-27T17:31:02;12.18;;;4.65;;
59512;SDS011;45330;51.634;5.562;2022-09-27T17:33:34;13.52;;;4.30;;
59512;SDS011;45330;51.634;5.562;2022-09-27T17:36:07;13.45;;;4.53;;
59512;SDS011;45330;51.634;5.562;2022-09-27T17:38:34;13.07;;;4.53;;
59512;SDS011;45330;51.634;5.562;2022-09-27T17:41:03;12.75;;;4.35;;
59512;SDS011;45330;51.634;5.562;2022-09-27T17:43:30;12.80;;;4.75;;
59512;SDS011;45330;51.634;5.562;2022-09-27T17:46:07;11.00;;;4.18;;
59512;SDS011;45330;51.634;5.562;2022-09-27T17:48:34;13.10;;;4.57;;
59512;SDS011;45330;51.634;5.562;2022-09-27T17:51:20;13.52;;;4.90;;
59512;SDS011;45330;51.634;5.562;2022-09-27T17:53:46;15.68;;;4.75;;
59512;SDS011;45330;51.634;5.562;2022-09-27T17:56:12;13.35;;;4.40;;